Create Custom Reports and Graphics: Custom Report

Latest Observations

MWA Stations

15 Minute Data | America/Los_Angeles
as of 5/5/26 7:40 AM PDT
Station Date Time Temp (°F) WindChill (°F) RH (%) Dew Pt (°F) Wind Dir (°) Wind Spd (mph) Wind Gust (mph) Solar Rad (W/m2) Pressure (mb) Daily Min Temp (°F) Daily Max Temp (°F) Daily Max Wind (mph) Daily Rain (In) Yest MinT (°F) Yest MaxT (°F) Yest MaxGst (mph) Yest Precip (In) MinBV Day (V)
MWA Office 5/5/26 0730 50.3   0.9 - 73   8 42.0   3.9 WSW | 241 5.9   4.9 11.6   7.7 206   96 1,013.3   0.8 47.8   0.1 50.3   0.6 16.2   5.0 0.00 48.0 62.9 32.4 0.00 12.5   0.1
MWA OPS 5/5/26 0730 48.5   0.5 46.4   2.1 79   11 42.4   3.5 SW | 220 5.0   6.1 8.8   8.6 149   14 1,013.0   0.8 47.0   0.5 49.0   1.8 16.9   12.3 0.00 47.4 60.9 32.0 0.00 12.7   0.0
LV-PS 5/5/26 0730 51.4   0.4 - 60   6 38.0   2.5 SW | 221 5.1   5.0 12.9   3.7 203   66 1,011.2   0.9 47.0   2.9 53.8   0.7 18.4   0.0 0.00 50.0 69.9 28.5 0.00 12.7   0.1
JV-PS 5/5/26 0730 50.7   1.6 - 62   10 38.4   3.0 WNW | 298 4.6   1.0 8.3   1.8 169   29 1,011.7   0.5 46.8   4.3 55.2   1.0 16.7   1.5 0.00 51.1 68.8 27.8 0.00 12.9   0.0
BDVWA 5/5/26 0730 49.5   1.3 - 48   5 30.6   3.9 SSE | 155 2.3   1.1 5.0   1.8 238   101 1,011.2   0.3 41.4   5.5 50.6   1.4 7.2   0.2 0.00 46.5 66.0 20.2 0.00 12.8   0.1
Newberry Springs 5/5/26 0730 56.2   2.4 - 57   9 41.3   2.2 N | 355 10.8   2.2 17.3   5.0 143   3 1,011.1   0.3 54.4   2.9 59.9   1.1 30.9   0.4 0.00 57.4 73.6 34.8 0.00 12.8   0.0
Pinon Hills 5/5/26 0730 42.8   0.1 40.4 74   7 35.0   2.5 NW | 325 4.3   3.1 9.0   5.5 258   69 1,013.0   0.6 38.7   1.9 45.1   2.0 13.6   11.2 0.00 36.8 56.9 34.8 0.00 12.8   0.0
Helendale 5/5/26 0730 50.1   0.7 - 70   3 40.8   0.4 S | 185 7.9   4.2 11.6   5.9 212   76 1,012.4   0.4 46.6   1.5 51.6   2.8 12.9   8.8 0.00 48.2 69.7 38.1 0.00 12.7   0.0
Lenwood 5/5/26 0730 51.4   1.5 - 65   4 40.2   0.3 SW | 219 8.0   1.9 13.4   2.2 121   17 1,012.1   0.6 48.9   1.6 53.6   1.9 18.8   4.6 0.00 50.5 70.6 30.5 0.00 12.7   0.0
Oak Hills 5/5/26 0730 42.4   1.1 37.2   2.8 99   5 42.2   2.4 SSW | 192 5.3   2.1 12.3   5.3 139   57 1,013.8   1.2 41.5   1.3 42.8   0.0 13.4   6.8 0.00 40.2 56.1 30.5 0.00 12.9   0.0
Pipes Wash Canyon 5/5/26 0730 49.2   0.7 48.6   1.1 44   12 28.0   5.3 WNW | 285 1.4   0.2 4.8   0.7 317   172 1,010.1   0.8 37.8   5.9 49.2   0.1 5.7   2.2 0.00 40.0 63.0 18.0 0.00 12.8   0.0
Max     56.2 48.6 99 42.4 - 10.8 17.3 317 1,013.8 54.4 59.9 30.9 0.00 57.4 73.6 38.1 0.00 12.9
Avg     49.3 43.2 67 38.1 - 5.5 10.5 196 1,012.1 - - - - - - - - -
Min     42.4 37.2 44 28.0 - 1.4 4.8 121 1,010.1 37.8 42.8 5.7 0.00 36.8 56.1 18.0 0.00 12.5

Latest Observations

Map

15 Minute Data

Rainfall & ETo

MWA Stations

15 Minute Data | America/Los_Angeles
as of 5/5/26 7:40 AM PDT
Station Date Time Latest Rain (In) Daily Rain (In) Yest Precip (In) Month Precip (In) Season Precip (In) Daily ETo (in) Yest ETo (In) 7 Day ETo (in)
MWA Office 5/5/26 0730 0.00 0.00 0.00 0.00 4.30 0.002 0.19 1.59
MWA OPS 5/5/26 0730 0.00 0.00 0.00 0.00 9.32 0.001 0.18 1.62
LV-PS 5/5/26 0730 0.00 0.00 0.00 0.00 3.63 0.003 0.23 1.76
JV-PS 5/5/26 0730 0.00 0.00 0.00 0.00 6.38 0.004 0.22 1.82
BDVWA 5/5/26 0730 0.00 0.00 0.00 0.00 6.35 0.002 0.18 1.82
Newberry Springs 5/5/26 0730 0.00 0.00 0.00 0.00 2.70 0.016 0.28 1.94
Pinon Hills 5/5/26 0730 0.00 0.00 0.00 0.00 15.51 0.001 0.17 1.54
Helendale 5/5/26 0730 0.00 0.00 0.00 0.00 5.55 0.002 0.24 1.75
Lenwood 5/5/26 0730 0.00 0.00 0.00 0.00 4.24 0.005 0.25 1.82
Oak Hills 5/5/26 0730 0.00 0.00 0.00 0.00 14.72 0.000 0.14 1.41
Pipes Wash Canyon 5/5/26 0730 0.00 0.00 0.00 0.00 13.92 0.000 0.16 1.56
Max     0.00 0.00 0.00 0.00 15.51 0.016 0.28 1.94
Avg     0.00 - - - - - - -
Min     0.00 0.00 0.00 0.00 2.70 0.000 0.14 1.41